Pagina principale
Immagini satellite Previsioni 15 giorniClimaMeteomar Cicloni Fulmine AeroportiFAQ Bollettino Informazioni
Tempo : Europa Africa America settentrionale America meridionale Asia Australia-Oceania Altri
Lingue Contatto

Genova, Italia

Sestri

latitudine: 44-25N, longitudine: 008-51E, altezza: 2 m


METAR: LIMJ 291350Z 18006KT 9999 FEW030 26/21 Q1016
short-TAF: scaduto (50957 ore)
long-TAF: LIMJ 291100Z 2912/3012 05008KT 9999 SCT030

Ora: 16:17 (14:17 UTC)

Osservazione

Il bollettino è stato emesso 27 minuti fa, alle 13:50 UTC  
Vento 06 kt da sud
Temperature 26°C
Umidità 74%
Pressione 1016 hPa
Visibilità 10 km o più
Poco nuvoloso ad un'altezza di 3000 ft

Cambiare le unità

Previsione

Il bollettino è stato emesso 2 ore e 56 minuti fa, alle 11:21 UTC  
Previsione valida dal 29 alle 12 UTC al 30 alle 12 UTC
Vento 08 kt da nord-est
Visibilità 10 km o più
Nubi sparse ad un'altezza di 3000 ft
Le informazioni contenute in questo sito formano oggetto di una clausola di esclusione di responsabilità
Tempo : Europa Africa America settentrionale America meridionale Asia Australia-Oceania Altri
Immagini satellite Previsioni 15 giorniClimaMeteomar Cicloni Fulmine AeroportiFAQ Lingue Contatto Bollettino Informazioni